createdAt,value
2023-04-20T00:00:40.375Z,8.67
2023-04-20T00:03:08.693Z,6.07
2023-04-20T00:05:37.704Z,5.27
2023-04-20T00:08:06.192Z,6.13
2023-04-20T00:10:34.159Z,5.37
2023-04-20T00:13:02.161Z,5.33
2023-04-20T00:15:30.350Z,3.83
2023-04-20T00:17:59.678Z,5.23
2023-04-20T00:20:27.892Z,6.00
2023-04-20T00:22:56.137Z,4.53
2023-04-20T00:25:24.058Z,5.20
2023-04-20T00:27:52.021Z,5.47
2023-04-20T00:30:19.993Z,5.27
2023-04-20T00:32:47.997Z,3.40
2023-04-20T00:35:17.350Z,4.20
2023-04-20T00:37:45.283Z,4.67
2023-04-20T00:40:13.636Z,6.20
2023-04-20T00:42:42.362Z,5.30
2023-04-20T00:45:11.159Z,3.93
2023-04-20T00:47:39.467Z,4.30
2023-04-20T00:50:08.856Z,5.70
2023-04-20T00:52:38.199Z,3.80
2023-04-20T00:55:07.222Z,5.63
2023-04-20T00:57:35.555Z,5.10
2023-04-20T01:00:06.721Z,4.80
2023-04-20T01:02:34.737Z,5.37
2023-04-20T01:05:04.011Z,3.80
2023-04-20T01:07:32.386Z,2.90
2023-04-20T01:10:01.711Z,3.03
2023-04-20T01:12:29.661Z,5.67
2023-04-20T01:14:57.607Z,4.77
2023-04-20T01:17:25.714Z,3.20
2023-04-20T01:19:53.732Z,4.10
2023-04-20T01:22:23.039Z,4.47
2023-04-20T01:24:51.022Z,6.10
2023-04-20T01:27:18.922Z,4.07
2023-04-20T01:29:47.173Z,4.03
2023-04-20T01:32:15.091Z,5.10
2023-04-20T01:34:43.068Z,5.20
2023-04-20T01:37:10.979Z,2.90
2023-04-20T01:39:40.387Z,3.60
2023-04-20T01:42:08.459Z,5.30
2023-04-20T01:44:36.419Z,18.47
2023-04-20T01:47:04.607Z,4.00
2023-04-20T01:49:32.711Z,6.47
2023-04-20T01:52:01.028Z,3.50
2023-04-20T01:54:29.043Z,4.83
2023-04-20T01:56:58.778Z,3.70
2023-04-20T01:59:26.735Z,5.90
2023-04-20T02:01:54.726Z,4.43
2023-04-20T02:04:22.763Z,7.20
2023-04-20T02:06:50.758Z,4.33
2023-04-20T02:09:18.961Z,11.73
2023-04-20T02:11:47.086Z,4.60
2023-04-20T02:14:16.399Z,3.60
2023-04-20T02:16:44.374Z,5.20
2023-04-20T02:19:12.330Z,3.30
2023-04-20T02:21:40.436Z,5.83
2023-04-20T02:24:08.745Z,6.53
2023-04-20T02:26:36.665Z,5.80
2023-04-20T02:29:04.556Z,4.43
2023-04-20T02:31:34.443Z,6.37
2023-04-20T02:34:02.695Z,3.93
2023-04-20T02:36:30.979Z,6.00
2023-04-20T02:38:58.907Z,6.17
2023-04-20T02:41:26.833Z,5.97
2023-04-20T02:43:54.768Z,5.40
2023-04-20T02:46:22.703Z,5.27
2023-04-20T02:48:52.058Z,3.93
2023-04-20T02:51:19.977Z,5.47
2023-04-20T02:53:47.928Z,4.10
2023-04-20T02:56:15.843Z,4.17
2023-04-20T02:58:43.815Z,5.10
2023-04-20T03:01:11.813Z,7.23
2023-04-20T03:03:39.849Z,7.73
2023-04-20T03:06:09.447Z,5.60
2023-04-20T03:08:37.409Z,4.53
2023-04-20T03:11:05.388Z,9.40
2023-04-20T03:13:33.342Z,4.30
2023-04-20T03:16:02.796Z,4.97
2023-04-20T03:18:30.767Z,4.80
2023-04-20T03:20:58.720Z,4.23
2023-04-20T03:23:28.097Z,3.80
2023-04-20T03:25:56.016Z,4.17
2023-04-20T03:28:23.950Z,3.90
2023-04-20T03:30:51.929Z,4.37
2023-04-20T03:33:19.916Z,5.97
2023-04-20T03:35:47.889Z,4.00
2023-04-20T03:38:15.808Z,6.50
2023-04-20T03:40:45.497Z,5.00
2023-04-20T03:43:13.433Z,8.30
2023-04-20T03:45:41.416Z,4.47
2023-04-20T03:48:09.406Z,4.83
2023-04-20T03:50:37.401Z,6.97
2023-04-20T03:53:05.370Z,10.70
2023-04-20T03:55:33.308Z,7.40
2023-04-20T03:58:02.577Z,6.03
2023-04-20T04:00:30.536Z,3.57
2023-04-20T04:02:58.561Z,7.57
2023-04-20T04:05:26.703Z,27.53
2023-04-20T04:07:54.804Z,8.20
2023-04-20T04:10:22.725Z,4.70
2023-04-20T04:12:50.631Z,15.33
2023-04-20T04:15:20.332Z,14.97
2023-04-20T04:17:48.840Z,5.87
2023-04-20T04:20:16.847Z,4.70
2023-04-20T04:22:44.831Z,5.40
2023-04-20T04:25:12.996Z,23.90
2023-04-20T04:27:41.450Z,5.13
2023-04-20T04:30:11.218Z,8.50
2023-04-20T04:32:40.773Z,6.60
2023-04-20T04:35:10.853Z,8.63
2023-04-20T04:37:38.847Z,7.60
2023-04-20T04:40:09.329Z,8.57
2023-04-20T04:42:37.254Z,4.70
2023-04-20T04:45:05.803Z,8.67
2023-04-20T04:47:35.873Z,4.23
2023-04-20T04:50:05.923Z,5.87
2023-04-20T04:52:34.068Z,7.37
2023-04-20T04:55:02.636Z,6.10
2023-04-20T04:57:30.658Z,14.43
2023-04-20T04:59:58.664Z,11.20
2023-04-20T05:02:26.893Z,7.80
2023-04-20T05:04:55.148Z,5.10
2023-04-20T05:07:24.852Z,7.10
2023-04-20T05:09:52.819Z,4.67
2023-04-20T05:12:20.760Z,7.97
2023-04-20T05:14:48.705Z,4.60
2023-04-20T05:17:16.687Z,5.83
2023-04-20T05:19:44.630Z,9.83
2023-04-20T05:22:12.560Z,3.90
2023-04-20T05:24:42.367Z,12.13
2023-04-20T05:27:11.329Z,10.33
2023-04-20T05:29:39.290Z,22.93
2023-04-20T05:32:07.368Z,10.80
2023-04-20T05:34:35.381Z,18.80
2023-04-20T05:37:04.772Z,9.27
2023-04-20T05:39:32.707Z,6.97
2023-04-20T05:42:02.280Z,7.30
2023-04-20T05:44:30.201Z,23.53
2023-04-20T05:46:58.159Z,10.07
2023-04-20T05:49:26.334Z,5.87
2023-04-20T05:51:54.343Z,4.97
2023-04-20T05:54:22.552Z,10.83
2023-04-20T05:56:50.532Z,6.83
2023-04-20T05:59:19.998Z,4.63
2023-04-20T06:01:47.905Z,7.50
2023-04-20T06:04:16.201Z,6.70
2023-04-20T06:06:44.304Z,5.57
2023-04-20T06:09:12.260Z,4.77
2023-04-20T06:11:40.207Z,11.50
2023-04-20T06:14:08.104Z,5.13
2023-04-20T06:16:37.431Z,5.87
2023-04-20T06:19:05.391Z,5.90
2023-04-20T06:21:34.548Z,6.93
2023-04-20T06:24:02.533Z,5.13
2023-04-20T06:26:30.454Z,11.40
2023-04-20T06:28:58.378Z,5.50
2023-04-20T06:31:26.426Z,4.87
2023-04-20T06:33:55.824Z,7.90
2023-04-20T06:36:23.790Z,13.50
2023-04-20T06:38:51.749Z,6.87
2023-04-20T06:41:19.683Z,12.40
2023-04-20T06:43:47.676Z,6.33
2023-04-20T06:46:15.623Z,8.00
2023-04-20T06:48:43.626Z,8.20
2023-04-20T06:51:13.704Z,4.10
2023-04-20T06:53:41.698Z,6.33
2023-04-20T06:56:09.758Z,10.30
2023-04-20T06:58:38.885Z,7.33
2023-04-20T07:01:06.895Z,7.93
2023-04-20T07:03:35.229Z,7.40
2023-04-20T07:06:03.272Z,10.87
2023-04-20T07:08:32.580Z,8.70
2023-04-20T07:11:00.576Z,5.47
2023-04-20T07:13:31.466Z,16.93
2023-04-20T07:16:01.634Z,5.90
2023-04-20T07:18:29.674Z,6.27
2023-04-20T07:20:57.656Z,4.73
2023-04-20T07:23:27.960Z,6.87
2023-04-20T07:25:57.315Z,11.10
2023-04-20T07:28:25.261Z,7.50
2023-04-20T07:30:53.197Z,5.80
2023-04-20T07:33:21.290Z,9.30
2023-04-20T07:35:49.210Z,12.97
2023-04-20T07:38:17.146Z,4.13
2023-04-20T07:40:45.060Z,5.70
2023-04-20T07:43:14.372Z,10.27
2023-04-20T07:45:42.684Z,6.27
2023-04-20T07:48:12.525Z,7.30
2023-04-20T07:50:40.575Z,9.70
2023-04-20T07:53:08.510Z,6.30
2023-04-20T07:55:36.770Z,10.97
2023-04-20T07:58:04.780Z,12.63
2023-04-20T08:00:34.188Z,10.70
2023-04-20T08:03:02.241Z,8.13
2023-04-20T08:05:30.397Z,10.63
2023-04-20T08:07:58.917Z,18.33
2023-04-20T08:10:26.926Z,7.07
2023-04-20T08:12:54.868Z,6.63
2023-04-20T08:15:22.924Z,8.30
2023-04-20T08:17:53.068Z,4.10
2023-04-20T08:20:21.123Z,6.10
2023-04-20T08:22:49.372Z,7.37
2023-04-20T08:25:17.505Z,7.60
2023-04-20T08:27:45.500Z,5.90
2023-04-20T08:30:13.902Z,10.20
2023-04-20T08:32:42.392Z,6.10
2023-04-20T08:35:11.791Z,9.53
2023-04-20T08:37:39.841Z,11.40
2023-04-20T08:40:09.274Z,8.93
2023-04-20T08:42:37.278Z,10.67
2023-04-20T08:45:05.588Z,8.10
2023-04-20T08:47:34.102Z,7.93
2023-04-20T08:50:02.075Z,7.67
2023-04-20T08:52:31.454Z,9.93
2023-04-20T08:54:59.411Z,6.67
2023-04-20T08:57:27.385Z,4.77
2023-04-20T08:59:55.551Z,7.87
2023-04-20T09:02:23.751Z,5.53
2023-04-20T09:05:01.472Z,6.03
2023-04-20T09:07:29.489Z,6.93
2023-04-20T09:09:59.402Z,7.87
2023-04-20T09:12:27.406Z,4.70
2023-04-20T09:14:55.980Z,9.30
2023-04-20T09:17:33.859Z,5.60
2023-04-20T09:20:01.945Z,6.67
2023-04-20T09:22:33.014Z,7.53
2023-04-20T09:25:02.386Z,7.43
2023-04-20T09:27:30.322Z,7.43
2023-04-20T09:29:59.076Z,8.93
2023-04-20T09:32:28.132Z,6.63
2023-04-20T09:34:56.166Z,11.03
2023-04-20T09:37:24.108Z,5.90
2023-04-20T09:39:52.120Z,4.10
2023-04-20T09:42:21.459Z,6.93
2023-04-20T09:44:49.435Z,9.10
2023-04-20T09:47:17.777Z,11.60
2023-04-20T09:49:46.630Z,10.70
2023-04-20T09:52:17.411Z,11.60
2023-04-20T09:54:45.462Z,8.77
2023-04-20T09:57:13.865Z,3.93
2023-04-20T09:59:44.048Z,6.70
2023-04-20T10:02:13.333Z,8.07
2023-04-20T10:04:53.828Z,4.67
2023-04-20T10:07:26.066Z,8.80
2023-04-20T10:10:05.003Z,3.60
2023-04-20T10:12:32.995Z,6.63
2023-04-20T10:15:02.268Z,9.43
2023-04-20T10:17:33.612Z,12.57
2023-04-20T10:20:01.687Z,5.07
2023-04-20T10:22:33.048Z,8.83
2023-04-20T10:25:01.301Z,5.27
2023-04-20T10:27:32.271Z,6.30
2023-04-20T10:30:11.821Z,6.27
2023-04-20T10:32:39.815Z,4.07
2023-04-20T10:35:08.773Z,6.70
2023-04-20T10:37:36.749Z,7.07
2023-04-20T10:40:07.666Z,10.90
2023-04-20T10:42:43.389Z,5.93
2023-04-20T10:45:12.855Z,9.20
2023-04-20T10:47:41.797Z,10.50
2023-04-20T10:50:10.846Z,5.87
2023-04-20T10:52:39.924Z,7.77
2023-04-20T10:55:08.494Z,6.37
2023-04-20T10:57:37.441Z,6.83
2023-04-20T11:00:17.660Z,7.43
2023-04-20T11:02:51.743Z,6.13
2023-04-20T11:05:20.404Z,7.20
2023-04-20T11:07:51.904Z,8.53
2023-04-20T11:10:20.257Z,6.27
2023-04-20T11:12:48.222Z,6.23
2023-04-20T11:15:17.754Z,8.20
2023-04-20T11:17:47.086Z,6.80
2023-04-20T11:20:17.778Z,6.77
2023-04-20T11:22:45.856Z,6.97
2023-04-20T11:25:14.051Z,5.77
2023-04-20T11:27:43.210Z,8.67
2023-04-20T11:30:11.460Z,5.33
2023-04-20T11:32:41.141Z,3.93
2023-04-20T11:35:10.955Z,5.60
2023-04-20T11:37:47.432Z,6.57
2023-04-20T11:40:15.378Z,5.83
2023-04-20T11:42:43.323Z,8.37
2023-04-20T11:45:12.211Z,3.90
2023-04-20T11:47:42.084Z,6.13
2023-04-20T11:50:10.432Z,4.30
2023-04-20T11:52:38.706Z,5.70
2023-04-20T11:55:07.779Z,7.03
2023-04-20T11:57:36.266Z,7.37
2023-04-20T12:00:04.953Z,8.00
2023-04-20T12:02:32.972Z,11.43
2023-04-20T12:05:03.220Z,4.77
2023-04-20T12:07:31.242Z,4.30
2023-04-20T12:09:59.191Z,24.97
2023-04-20T12:12:27.555Z,8.47
2023-04-20T12:14:55.495Z,6.47
2023-04-20T12:17:23.506Z,10.33
2023-04-20T12:19:52.578Z,8.10
2023-04-20T12:22:21.923Z,6.77
2023-04-20T12:24:49.848Z,8.10
2023-04-20T12:27:17.829Z,4.90
2023-04-20T12:29:45.793Z,11.82
2023-04-20T12:32:13.699Z,22.57
2023-04-20T12:34:41.653Z,7.67
2023-04-20T12:37:09.608Z,7.00
2023-04-20T12:39:38.889Z,7.25
2023-04-20T12:42:06.884Z,8.67
2023-04-20T12:44:34.875Z,6.30
2023-04-20T12:47:02.978Z,3.53
2023-04-20T12:49:32.552Z,6.38
2023-04-20T12:52:01.640Z,8.93
2023-04-20T12:54:29.549Z,5.57
2023-04-20T12:56:58.851Z,13.90
2023-04-20T12:59:26.816Z,6.20
2023-04-20T13:01:54.798Z,14.50
2023-04-20T13:04:23.378Z,15.03
2023-04-20T13:06:51.795Z,6.10
2023-04-20T13:09:19.784Z,4.90
2023-04-20T13:11:47.801Z,3.70
2023-04-20T13:14:17.259Z,4.00
2023-04-20T13:16:45.585Z,6.00
2023-04-20T13:19:13.583Z,3.70
2023-04-20T13:21:41.606Z,6.43
2023-04-20T13:24:09.876Z,20.47
2023-04-20T13:26:37.829Z,12.57
2023-04-20T13:29:05.821Z,6.87
2023-04-20T13:31:35.189Z,5.80
2023-04-20T13:34:03.173Z,9.67
2023-04-20T13:36:32.758Z,9.83
2023-04-20T13:39:00.882Z,9.23
2023-04-20T13:41:28.784Z,14.23
2023-04-20T13:43:58.044Z,7.50
2023-04-20T13:46:26.067Z,17.13
2023-04-20T13:48:55.482Z,24.70
2023-04-20T13:51:23.421Z,28.13
2023-04-20T13:53:51.368Z,27.73
2023-04-20T13:56:19.441Z,29.80
2023-04-20T13:58:47.442Z,20.67
2023-04-20T14:01:16.575Z,23.10
2023-04-20T14:03:44.947Z,43.90
2023-04-20T14:06:14.404Z,84.80
2023-04-20T14:08:42.351Z,61.87
2023-04-20T14:11:10.767Z,52.53
2023-04-20T14:13:38.969Z,26.73
2023-04-20T14:16:09.761Z,15.13
2023-04-20T14:18:37.717Z,11.40
2023-04-20T14:21:05.780Z,13.87
2023-04-20T14:23:35.184Z,16.63
2023-04-20T14:26:04.048Z,12.47
2023-04-20T14:28:33.373Z,16.73
2023-04-20T14:31:02.461Z,21.53
2023-04-20T14:33:30.490Z,13.37
2023-04-20T14:35:58.504Z,12.00
2023-04-20T14:38:26.446Z,17.23
2023-04-20T14:40:55.788Z,13.37
2023-04-20T14:43:24.003Z,10.20
2023-04-20T14:45:52.023Z,8.23
2023-04-20T14:48:20.021Z,8.70
2023-04-20T14:50:47.920Z,10.60
2023-04-20T14:53:15.880Z,7.23
2023-04-20T14:55:43.868Z,7.90
2023-04-20T14:58:13.248Z,8.60
2023-04-20T15:00:41.206Z,12.27
2023-04-20T15:03:09.259Z,7.20
2023-04-20T15:05:37.676Z,9.33
2023-04-20T15:08:06.114Z,9.70
2023-04-20T15:10:34.817Z,9.93
2023-04-20T15:13:03.811Z,10.87
2023-04-20T15:15:46.847Z,10.07
2023-04-20T15:18:16.646Z,7.30
2023-04-20T15:20:44.645Z,12.37
2023-04-20T15:23:12.676Z,6.97
2023-04-20T15:25:40.590Z,5.90
2023-04-20T15:28:08.526Z,7.93
2023-04-20T15:30:37.820Z,6.43
2023-04-20T15:33:06.119Z,6.53
2023-04-20T15:35:34.240Z,4.10
2023-04-20T15:38:02.193Z,8.80
2023-04-20T15:40:30.389Z,13.93
2023-04-20T15:42:58.338Z,7.00
2023-04-20T15:45:26.328Z,10.13
2023-04-20T15:47:56.053Z,8.43
2023-04-20T15:50:24.154Z,9.13
2023-04-20T15:52:52.970Z,11.73
2023-04-20T15:55:20.902Z,9.50
2023-04-20T15:57:48.854Z,15.70
2023-04-20T16:00:17.549Z,6.30
2023-04-20T16:02:45.732Z,10.80
2023-04-20T16:05:15.119Z,8.40
2023-04-20T16:07:43.061Z,13.47
2023-04-20T16:10:11.805Z,7.50
2023-04-20T16:12:39.797Z,8.47
2023-04-20T16:15:08.740Z,19.50
2023-04-20T16:17:36.668Z,11.43
2023-04-20T16:20:05.552Z,7.77
2023-04-20T16:22:34.892Z,11.13
2023-04-20T16:25:02.864Z,11.20
2023-04-20T16:27:30.838Z,13.63
2023-04-20T16:29:58.809Z,7.87
2023-04-20T16:32:26.816Z,9.30
2023-04-20T16:34:54.766Z,10.50
2023-04-20T16:37:22.696Z,6.30
2023-04-20T16:39:51.992Z,6.60
2023-04-20T16:42:19.922Z,9.93
2023-04-20T16:44:47.899Z,8.67
2023-04-20T16:47:15.867Z,14.63
2023-04-20T16:49:43.845Z,12.10
2023-04-20T16:52:11.807Z,8.90
2023-04-20T16:54:41.685Z,6.27
2023-04-20T16:57:11.011Z,9.33
2023-04-20T16:59:38.976Z,9.50
2023-04-20T17:02:06.972Z,16.17
2023-04-20T17:04:35.857Z,23.70
2023-04-20T17:07:04.130Z,16.93
2023-04-20T17:09:32.085Z,7.50
2023-04-20T17:12:00.039Z,9.87
2023-04-20T17:14:32.224Z,15.20
2023-04-20T17:17:00.285Z,8.83
2023-04-20T17:19:30.053Z,10.77
2023-04-20T17:21:59.229Z,8.53
2023-04-20T17:24:27.191Z,15.13
2023-04-20T17:26:55.173Z,9.60
2023-04-20T17:29:23.141Z,11.20
2023-04-20T17:31:52.466Z,7.83
2023-04-20T17:34:20.926Z,10.77
2023-04-20T17:36:49.005Z,13.27
2023-04-20T17:39:16.931Z,9.43
2023-04-20T17:41:45.310Z,11.10
2023-04-20T17:44:13.251Z,9.70
2023-04-20T17:46:41.528Z,10.53
2023-04-20T17:49:10.827Z,6.97
2023-04-20T17:51:38.750Z,10.70
2023-04-20T17:54:07.817Z,10.10
2023-04-20T17:56:35.893Z,6.60
2023-04-20T17:59:04.040Z,11.53
2023-04-20T18:01:34.507Z,9.53
2023-04-20T18:04:02.714Z,16.17
2023-04-20T18:06:33.304Z,12.20
2023-04-20T18:09:01.295Z,10.57
2023-04-20T18:11:29.312Z,6.03
2023-04-20T18:13:57.261Z,6.37
2023-04-20T18:16:25.265Z,6.20
2023-04-20T18:18:53.220Z,5.27
2023-04-20T18:21:21.226Z,6.20
2023-04-20T18:23:51.401Z,9.13
2023-04-20T18:26:20.416Z,9.03
2023-04-20T18:28:48.392Z,9.43
2023-04-20T18:31:16.337Z,8.17
2023-04-20T18:33:44.293Z,8.07
2023-04-20T18:36:12.232Z,9.47
2023-04-20T18:38:40.256Z,8.97
2023-04-20T18:41:09.584Z,6.20
2023-04-20T18:43:37.556Z,9.50
2023-04-20T18:46:05.937Z,10.90
2023-04-20T18:48:33.951Z,12.17
2023-04-20T18:51:02.731Z,11.73
2023-04-20T18:53:31.432Z,8.20
2023-04-20T18:56:02.196Z,7.03
2023-04-20T18:58:31.554Z,7.50
2023-04-20T19:01:01.066Z,12.03
2023-04-20T19:03:29.299Z,6.63
2023-04-20T19:05:57.357Z,8.30
2023-04-20T19:08:25.334Z,9.10
2023-04-20T19:10:56.506Z,5.47
2023-04-20T19:13:24.484Z,6.63
2023-04-20T19:15:57.564Z,7.23
2023-04-20T19:18:26.491Z,6.33
2023-04-20T19:20:54.794Z,7.83
2023-04-20T19:23:22.739Z,6.33
2023-04-20T19:25:50.623Z,10.73
2023-04-20T19:28:18.576Z,7.50
2023-04-20T19:30:46.550Z,7.30
2023-04-20T19:33:15.923Z,11.50
2023-04-20T19:35:48.223Z,8.00
2023-04-20T19:38:16.140Z,7.57
2023-04-20T19:40:44.062Z,8.50
2023-04-20T19:43:11.949Z,11.23
2023-04-20T19:45:39.916Z,9.80
2023-04-20T19:48:08.004Z,8.97
2023-04-20T19:50:37.360Z,7.77
2023-04-20T19:53:05.281Z,8.50
2023-04-20T19:55:33.258Z,10.13
2023-04-20T19:58:01.372Z,8.97
2023-04-20T20:00:29.322Z,9.37
2023-04-20T20:02:57.419Z,7.53
2023-04-20T20:05:25.628Z,7.93
2023-04-20T20:07:55.105Z,7.47
2023-04-20T20:10:23.058Z,7.90
2023-04-20T20:12:51.004Z,8.80
2023-04-20T20:15:19.019Z,9.70
2023-04-20T20:17:47.715Z,10.03
2023-04-20T20:20:16.387Z,7.37
2023-04-20T20:22:49.789Z,8.07
2023-04-20T20:25:19.888Z,6.10
2023-04-20T20:27:47.841Z,6.97
2023-04-20T20:30:16.087Z,4.43
2023-04-20T20:32:44.063Z,10.33
2023-04-20T20:35:13.136Z,11.23
2023-04-20T20:37:41.637Z,10.20
2023-04-20T20:40:12.272Z,11.70
2023-04-20T20:42:42.466Z,10.07
2023-04-20T20:45:12.550Z,13.20
2023-04-20T20:47:41.119Z,8.00
2023-04-20T20:50:09.745Z,5.80
2023-04-20T20:52:37.727Z,9.63
2023-04-20T20:55:06.331Z,7.03
2023-04-20T20:57:34.503Z,11.13
2023-04-20T21:00:07.477Z,10.80
2023-04-20T21:02:35.695Z,8.03
2023-04-20T21:05:03.743Z,9.13
2023-04-20T21:07:31.676Z,7.20
2023-04-20T21:09:59.701Z,10.43
2023-04-20T21:12:27.649Z,6.43
2023-04-20T21:14:55.584Z,19.17
2023-04-20T21:17:25.305Z,5.60
2023-04-20T21:19:53.247Z,6.03
2023-04-20T21:22:22.600Z,7.10
2023-04-20T21:24:50.648Z,8.83
2023-04-20T21:27:18.624Z,5.60
2023-04-20T21:29:46.595Z,6.27
2023-04-20T21:32:14.590Z,5.60
2023-04-20T21:34:43.925Z,6.03
2023-04-20T21:37:11.845Z,9.03
2023-04-20T21:39:39.768Z,11.20
2023-04-20T21:42:07.720Z,12.10
2023-04-20T21:44:35.725Z,11.07
2023-04-20T21:47:03.659Z,11.00
2023-04-20T21:49:31.592Z,11.23
2023-04-20T21:52:00.887Z,11.60
2023-04-20T21:54:28.835Z,18.67
2023-04-20T21:56:57.075Z,13.30
2023-04-20T21:59:25.011Z,12.40
2023-04-20T22:01:52.974Z,11.70
2023-04-20T22:04:21.098Z,20.23
2023-04-20T22:06:49.503Z,10.70
2023-04-20T22:09:18.982Z,9.90
2023-04-20T22:11:47.860Z,10.20
2023-04-20T22:14:15.836Z,7.90
2023-04-20T22:16:43.817Z,6.47
2023-04-20T22:19:12.481Z,10.30
2023-04-20T22:21:40.520Z,8.33
2023-04-20T22:24:08.754Z,7.17
2023-04-20T22:26:38.059Z,8.83
2023-04-20T22:29:06.334Z,7.10
2023-04-20T22:31:34.304Z,8.03
2023-04-20T22:34:02.274Z,8.83
2023-04-20T22:36:30.451Z,9.63
2023-04-20T22:38:58.395Z,7.43
2023-04-20T22:41:26.345Z,9.83
2023-04-20T22:43:55.673Z,15.53
2023-04-20T22:46:23.669Z,8.83
2023-04-20T22:48:52.485Z,11.63
2023-04-20T22:51:20.681Z,7.87
2023-04-20T22:53:48.594Z,9.80
2023-04-20T22:56:16.512Z,10.00
2023-04-20T22:58:44.420Z,7.53
2023-04-20T23:01:13.723Z,10.93
2023-04-20T23:03:41.791Z,11.23
2023-04-20T23:06:11.244Z,6.20
2023-04-20T23:08:39.893Z,5.87
2023-04-20T23:11:07.838Z,5.80
2023-04-20T23:13:37.171Z,5.90
2023-04-20T23:16:05.571Z,10.10
2023-04-20T23:18:35.076Z,7.63
2023-04-20T23:21:03.104Z,7.23
2023-04-20T23:23:31.040Z,7.30
2023-04-20T23:25:59.006Z,8.27
2023-04-20T23:28:26.964Z,7.47
2023-04-20T23:30:54.931Z,7.53
2023-04-20T23:33:22.884Z,7.83
2023-04-20T23:35:52.168Z,6.83
2023-04-20T23:38:20.133Z,8.40
2023-04-20T23:40:48.050Z,8.80
2023-04-20T23:43:16.035Z,7.27
2023-04-20T23:45:44.036Z,8.40
2023-04-20T23:48:12.002Z,17.80
2023-04-20T23:50:40.021Z,9.87
2023-04-20T23:53:10.232Z,9.27
2023-04-20T23:55:38.526Z,8.70
2023-04-20T23:58:06.427Z,8.10
